createdAt,value
2023-02-06T00:01:28.910Z,4.64
2023-02-06T00:03:56.860Z,4.69
2023-02-06T00:06:25.079Z,4.65
2023-02-06T00:08:53.095Z,4.58
2023-02-06T00:11:22.530Z,4.53
2023-02-06T00:13:50.824Z,4.43
2023-02-06T00:16:20.934Z,4.36
2023-02-06T00:18:49.606Z,4.40
2023-02-06T00:21:20.402Z,4.40
2023-02-06T00:23:48.878Z,4.52
2023-02-06T00:26:16.773Z,4.49
2023-02-06T00:28:47.135Z,4.46
2023-02-06T00:31:15.836Z,4.48
2023-02-06T00:33:43.974Z,4.52
2023-02-06T00:36:11.985Z,4.65
2023-02-06T00:38:40.136Z,4.56
2023-02-06T00:41:08.025Z,4.69
2023-02-06T00:43:36.566Z,4.65
2023-02-06T00:46:06.134Z,4.55
2023-02-06T00:48:34.078Z,4.63
2023-02-06T00:51:02.103Z,4.71
2023-02-06T00:53:30.243Z,4.76
2023-02-06T00:55:59.440Z,4.80
2023-02-06T00:58:27.422Z,4.84
2023-02-06T01:00:55.455Z,4.80
2023-02-06T01:03:25.892Z,4.76
2023-02-06T01:05:53.843Z,4.71
2023-02-06T01:08:23.031Z,4.72
2023-02-06T01:10:52.414Z,4.69
2023-02-06T01:13:20.901Z,4.57
2023-02-06T01:15:51.016Z,4.44
2023-02-06T01:18:19.224Z,4.48
2023-02-06T01:20:48.539Z,4.51
2023-02-06T01:23:16.622Z,4.54
2023-02-06T01:25:45.366Z,4.49
2023-02-06T01:28:13.441Z,4.53
2023-02-06T01:30:41.404Z,4.61
2023-02-06T01:33:09.333Z,4.49
2023-02-06T01:35:38.298Z,4.60
2023-02-06T01:38:09.941Z,4.68
2023-02-06T01:40:38.868Z,4.64
2023-02-06T01:43:12.424Z,4.70
2023-02-06T01:45:45.244Z,4.57
2023-02-06T01:48:17.594Z,4.47
2023-02-06T01:50:49.052Z,4.54
2023-02-06T01:53:19.885Z,4.45
2023-02-06T01:55:49.620Z,4.44
2023-02-06T01:58:22.253Z,4.36
2023-02-06T02:00:50.644Z,4.32
2023-02-06T02:03:18.849Z,4.28
2023-02-06T02:05:48.883Z,4.29
2023-02-06T02:08:22.893Z,4.29
2023-02-06T02:10:51.416Z,4.19
2023-02-06T02:13:19.312Z,4.23
2023-02-06T02:15:55.310Z,4.32
2023-02-06T02:18:38.309Z,4.24
2023-02-06T02:21:40.524Z,4.24
2023-02-06T02:24:15.734Z,4.35
2023-02-06T02:27:03.804Z,4.34
2023-02-06T02:30:05.911Z,4.43
2023-02-06T02:32:55.396Z,4.46
2023-02-06T02:35:32.341Z,4.49
2023-02-06T02:38:12.918Z,4.44
2023-02-06T02:40:47.696Z,4.48
2023-02-06T02:43:23.764Z,4.51
2023-02-06T02:45:57.675Z,4.55
2023-02-06T02:48:29.208Z,4.50
2023-02-06T02:51:00.984Z,4.50
2023-02-06T02:53:29.080Z,4.53
2023-02-06T02:55:57.211Z,4.54
2023-02-06T02:58:31.118Z,4.53
2023-02-06T03:01:03.489Z,4.55
2023-02-06T03:03:38.653Z,4.53
2023-02-06T03:06:36.704Z,4.52
2023-02-06T03:09:12.692Z,4.51
2023-02-06T03:11:45.488Z,4.53
2023-02-06T03:14:20.694Z,4.52
2023-02-06T03:16:53.355Z,4.47
2023-02-06T03:19:26.036Z,4.52
2023-02-06T03:21:55.353Z,4.46
2023-02-06T03:24:27.401Z,4.45
2023-02-06T03:27:00.640Z,4.40
2023-02-06T03:29:30.577Z,4.46
2023-02-06T03:32:01.732Z,4.52
2023-02-06T03:34:38.202Z,4.57
2023-02-06T03:37:08.718Z,4.53
2023-02-06T03:39:37.049Z,4.53
2023-02-06T03:42:06.933Z,4.52
2023-02-06T03:44:38.140Z,4.48
2023-02-06T03:47:08.059Z,4.43
2023-02-06T03:49:39.082Z,4.45
2023-02-06T03:52:11.543Z,4.51
2023-02-06T03:54:45.406Z,4.39
2023-02-06T03:57:19.327Z,4.40
2023-02-06T03:59:47.756Z,4.41
2023-02-06T04:02:17.042Z,4.34
2023-02-06T04:04:46.213Z,4.25
2023-02-06T04:07:19.825Z,4.33
2023-02-06T04:09:47.765Z,4.37
2023-02-06T04:12:16.178Z,4.40
2023-02-06T04:14:44.567Z,4.42
2023-02-06T04:17:14.517Z,4.34
2023-02-06T04:19:45.210Z,4.37
2023-02-06T04:22:16.538Z,4.39
2023-02-06T04:24:44.744Z,4.40
2023-02-06T04:27:14.339Z,4.41
2023-02-06T04:29:42.316Z,4.39
2023-02-06T04:32:10.275Z,4.38
2023-02-06T04:34:39.399Z,4.38
2023-02-06T04:37:07.682Z,4.29
2023-02-06T04:39:36.956Z,4.18
2023-02-06T04:42:05.417Z,4.08
2023-02-06T04:44:33.793Z,3.98
2023-02-06T04:47:03.135Z,3.90
2023-02-06T04:49:31.399Z,3.89
2023-02-06T04:51:59.297Z,3.84
2023-02-06T04:54:27.196Z,3.88
2023-02-06T04:56:56.470Z,3.92
2023-02-06T04:59:24.384Z,4.03
2023-02-06T05:01:52.306Z,4.06
2023-02-06T05:04:20.234Z,4.03
2023-02-06T05:06:48.211Z,4.00
2023-02-06T05:09:16.085Z,4.02
2023-02-06T05:11:43.982Z,4.09
2023-02-06T05:14:13.251Z,4.03
2023-02-06T05:16:41.142Z,3.95
2023-02-06T05:19:09.388Z,3.96
2023-02-06T05:21:37.446Z,4.03
2023-02-06T05:24:05.679Z,4.10
2023-02-06T05:26:33.712Z,4.09
2023-02-06T05:29:01.613Z,4.07
2023-02-06T05:31:31.040Z,4.12
2023-02-06T05:33:59.052Z,4.06
2023-02-06T05:36:26.977Z,4.00
2023-02-06T05:38:54.867Z,4.01
2023-02-06T05:41:22.811Z,3.96
2023-02-06T05:43:50.725Z,3.94
2023-02-06T05:46:19.514Z,3.90
2023-02-06T05:48:48.836Z,3.96
2023-02-06T05:51:16.975Z,3.98
2023-02-06T05:53:45.022Z,4.00
2023-02-06T05:56:12.950Z,4.05
2023-02-06T05:58:40.889Z,4.08
2023-02-06T06:01:08.749Z,4.09
2023-02-06T06:03:38.323Z,4.03
2023-02-06T06:06:08.784Z,3.86
2023-02-06T06:08:37.066Z,3.78
2023-02-06T06:11:04.999Z,3.80
2023-02-06T06:13:32.992Z,3.92
2023-02-06T06:16:00.963Z,3.90
2023-02-06T06:18:28.955Z,3.88
2023-02-06T06:20:56.952Z,3.87
2023-02-06T06:23:26.240Z,3.88
2023-02-06T06:25:54.181Z,3.87
2023-02-06T06:28:22.131Z,3.90
2023-02-06T06:30:50.060Z,3.80
2023-02-06T06:33:17.984Z,3.82
2023-02-06T06:35:45.881Z,3.92
2023-02-06T06:38:13.747Z,3.99
2023-02-06T06:40:43.781Z,4.01
2023-02-06T06:43:11.783Z,4.02
2023-02-06T06:45:39.900Z,3.98
2023-02-06T06:48:07.936Z,3.87
2023-02-06T06:50:35.927Z,3.77
2023-02-06T06:53:04.230Z,3.77
2023-02-06T06:55:32.769Z,3.70
2023-02-06T06:58:02.359Z,3.67
2023-02-06T07:00:30.614Z,3.59
2023-02-06T07:02:58.536Z,3.50
2023-02-06T07:05:26.650Z,3.45
2023-02-06T07:07:54.628Z,3.41
2023-02-06T07:10:22.533Z,3.41
2023-02-06T07:12:53.479Z,3.45
2023-02-06T07:15:22.741Z,3.46
2023-02-06T07:17:50.730Z,3.56
2023-02-06T07:20:18.874Z,3.72
2023-02-06T07:22:47.495Z,3.79
2023-02-06T07:25:15.409Z,3.80
2023-02-06T07:27:43.406Z,3.84
2023-02-06T07:30:12.482Z,3.87
2023-02-06T07:32:42.132Z,3.98
2023-02-06T07:35:10.172Z,4.14
2023-02-06T07:37:38.257Z,4.24
2023-02-06T07:40:07.022Z,4.39
2023-02-06T07:42:35.037Z,4.41
2023-02-06T07:45:11.653Z,4.49
2023-02-06T07:47:40.936Z,4.49
2023-02-06T07:50:09.349Z,4.54
2023-02-06T07:52:37.580Z,4.58
2023-02-06T07:55:05.996Z,4.55
2023-02-06T07:57:34.055Z,4.65
2023-02-06T08:00:02.006Z,4.66
2023-02-06T08:02:41.263Z,4.54
2023-02-06T08:05:10.296Z,4.58
2023-02-06T08:07:38.345Z,4.55
2023-02-06T08:10:06.792Z,4.61
2023-02-06T08:12:34.757Z,4.59
2023-02-06T08:15:02.802Z,4.67
2023-02-06T08:17:30.816Z,4.60
2023-02-06T08:20:00.348Z,4.65
2023-02-06T08:22:29.912Z,4.88
2023-02-06T08:24:57.855Z,4.95
2023-02-06T08:27:25.776Z,4.98
2023-02-06T08:29:53.745Z,5.08
2023-02-06T08:32:21.642Z,5.18
2023-02-06T08:34:49.548Z,5.22
2023-02-06T08:37:18.945Z,5.24
2023-02-06T08:39:46.894Z,5.29
2023-02-06T08:42:14.836Z,5.32
2023-02-06T08:44:42.817Z,5.33
2023-02-06T08:47:10.900Z,5.41
2023-02-06T08:49:39.369Z,5.43
2023-02-06T08:52:07.310Z,5.41
2023-02-06T08:54:38.719Z,5.33
2023-02-06T08:57:07.381Z,5.30
2023-02-06T08:59:35.669Z,5.34
2023-02-06T09:02:03.674Z,5.15
2023-02-06T09:04:34.615Z,5.00
2023-02-06T09:07:02.948Z,5.07
2023-02-06T09:09:30.959Z,5.15
2023-02-06T09:12:03.676Z,5.23
2023-02-06T09:14:32.206Z,5.31
2023-02-06T09:17:00.185Z,5.42
2023-02-06T09:19:28.149Z,5.50
2023-02-06T09:21:56.335Z,5.55
2023-02-06T09:24:24.288Z,5.43
2023-02-06T09:26:59.887Z,5.44
2023-02-06T09:29:31.972Z,5.31
2023-02-06T09:32:00.550Z,5.41
2023-02-06T09:34:28.725Z,5.33
2023-02-06T09:36:56.984Z,5.26
2023-02-06T09:39:25.944Z,5.36
2023-02-06T09:41:57.184Z,5.45
2023-02-06T09:44:35.404Z,5.42
2023-02-06T09:47:07.404Z,5.38
2023-02-06T09:49:40.560Z,5.46
2023-02-06T09:52:34.917Z,5.58
2023-02-06T09:55:11.080Z,5.69
2023-02-06T09:57:46.354Z,5.70
2023-02-06T10:00:31.018Z,5.63
2023-02-06T10:03:12.553Z,5.43
2023-02-06T10:05:50.610Z,5.44
2023-02-06T10:08:23.839Z,5.58
2023-02-06T10:10:54.960Z,5.62
2023-02-06T10:13:27.387Z,5.48
2023-02-06T10:16:02.357Z,5.55
2023-02-06T10:18:36.144Z,5.48
2023-02-06T10:21:11.980Z,5.70
2023-02-06T10:23:47.432Z,5.62
2023-02-06T10:26:18.693Z,5.55
2023-02-06T10:28:51.353Z,5.48
2023-02-06T10:31:35.697Z,5.46
2023-02-06T10:34:26.886Z,5.53
2023-02-06T10:37:08.211Z,5.46
2023-02-06T10:39:54.602Z,5.63
2023-02-06T10:42:31.160Z,5.72
2023-02-06T10:45:19.004Z,5.83
2023-02-06T10:47:55.244Z,5.72
2023-02-06T10:50:29.802Z,5.80
2023-02-06T10:53:03.092Z,5.94
2023-02-06T10:55:38.613Z,6.02
2023-02-06T10:58:14.618Z,6.07
2023-02-06T11:00:45.249Z,5.92
2023-02-06T11:03:18.053Z,5.85
2023-02-06T11:05:46.497Z,5.86
2023-02-06T11:08:21.723Z,5.94
2023-02-06T11:10:50.213Z,5.84
2023-02-06T11:13:25.300Z,5.85
2023-02-06T11:16:00.433Z,5.88
2023-02-06T11:18:34.506Z,5.73
2023-02-06T11:21:02.561Z,5.83
2023-02-06T11:23:34.754Z,5.95
2023-02-06T11:26:10.565Z,5.95
2023-02-06T11:28:49.405Z,6.09
2023-02-06T11:31:20.595Z,6.20
2023-02-06T11:33:52.881Z,6.12
2023-02-06T11:36:27.978Z,6.13
2023-02-06T11:38:58.330Z,6.04
2023-02-06T11:41:27.103Z,6.15
2023-02-06T11:44:02.472Z,6.31
2023-02-06T11:46:32.493Z,6.34
2023-02-06T11:49:09.150Z,6.46
2023-02-06T11:51:49.876Z,6.36
2023-02-06T11:54:24.492Z,6.19
2023-02-06T11:57:04.916Z,5.95
2023-02-06T11:59:35.468Z,5.79
2023-02-06T12:02:07.039Z,5.79
2023-02-06T12:04:40.985Z,5.93
2023-02-06T12:07:15.298Z,5.95
2023-02-06T12:09:43.741Z,5.92
2023-02-06T12:12:23.685Z,5.87
2023-02-06T12:14:56.548Z,5.64
2023-02-06T12:17:29.680Z,5.53
2023-02-06T12:20:05.372Z,5.43
2023-02-06T12:22:41.350Z,5.46
2023-02-06T12:25:27.173Z,5.59
2023-02-06T12:27:59.876Z,5.58
2023-02-06T12:30:34.581Z,5.76
2023-02-06T12:33:11.049Z,5.78
2023-02-06T12:35:47.849Z,5.86
2023-02-06T12:38:25.417Z,6.03
2023-02-06T12:41:07.770Z,6.05
2023-02-06T12:43:39.177Z,6.10
2023-02-06T12:46:13.484Z,5.94
2023-02-06T12:48:45.015Z,5.91
2023-02-06T12:51:20.806Z,5.62
2023-02-06T12:53:53.777Z,5.55
2023-02-06T12:56:28.872Z,5.71
2023-02-06T12:59:12.050Z,5.79
2023-02-06T13:01:52.229Z,5.94
2023-02-06T13:04:24.937Z,6.01
2023-02-06T13:06:58.183Z,6.06
2023-02-06T13:09:29.561Z,5.89
2023-02-06T13:12:09.633Z,5.76
2023-02-06T13:14:39.865Z,5.72
2023-02-06T13:17:11.804Z,5.58
2023-02-06T13:20:01.152Z,5.62
2023-02-06T13:22:43.912Z,5.54
2023-02-06T13:25:54.602Z,5.64
2023-02-06T13:28:46.450Z,5.25
2023-02-06T13:31:35.679Z,5.42
2023-02-06T13:34:08.681Z,5.55
2023-02-06T13:36:57.297Z,5.66
2023-02-06T13:39:33.850Z,5.56
2023-02-06T13:42:35.435Z,5.59
2023-02-06T13:45:06.577Z,5.61
2023-02-06T13:48:15.040Z,5.42
2023-02-06T13:51:06.255Z,5.39
2023-02-06T13:54:22.167Z,5.32
2023-02-06T13:57:12.308Z,5.39
2023-02-06T13:59:46.209Z,5.55
2023-02-06T14:02:19.480Z,5.50
2023-02-06T14:04:48.713Z,5.66
2023-02-06T14:07:42.072Z,5.72
2023-02-06T14:10:37.913Z,5.71
2023-02-06T14:13:24.233Z,5.82
2023-02-06T14:16:06.045Z,5.78
2023-02-06T14:18:46.345Z,5.68
2023-02-06T14:21:29.992Z,5.78
2023-02-06T14:24:16.805Z,5.75
2023-02-06T14:26:52.116Z,5.77
2023-02-06T14:29:32.764Z,5.80
2023-02-06T14:32:15.092Z,5.82
2023-02-06T14:34:59.209Z,5.90
2023-02-06T14:37:51.355Z,5.89
2023-02-06T14:40:23.672Z,5.72
2023-02-06T14:42:54.417Z,5.62
2023-02-06T14:45:40.860Z,5.67
2023-02-06T14:48:28.114Z,5.31
2023-02-06T14:50:59.617Z,5.41
2023-02-06T14:53:32.386Z,5.34
2023-02-06T14:56:10.389Z,5.12
2023-02-06T14:58:38.692Z,5.31
2023-02-06T15:01:21.789Z,5.39
2023-02-06T15:03:54.821Z,5.41
2023-02-06T15:06:34.491Z,5.39
2023-02-06T15:09:03.119Z,5.21
2023-02-06T15:11:33.633Z,5.29
2023-02-06T15:14:05.096Z,5.35
2023-02-06T15:16:47.024Z,5.29
2023-02-06T15:19:21.577Z,5.14
2023-02-06T15:21:51.616Z,5.19
2023-02-06T15:24:34.054Z,5.16
2023-02-06T15:27:11.185Z,5.06
2023-02-06T15:29:39.272Z,5.06
2023-02-06T15:32:21.375Z,5.19
2023-02-06T15:34:49.401Z,5.06
2023-02-06T15:37:22.202Z,5.14
2023-02-06T15:39:50.964Z,5.24
2023-02-06T15:42:20.839Z,5.27
2023-02-06T15:44:50.444Z,5.31
2023-02-06T15:47:21.507Z,5.21
2023-02-06T15:49:51.742Z,4.95
2023-02-06T15:52:35.339Z,5.02
2023-02-06T15:55:04.853Z,5.12
2023-02-06T15:57:35.905Z,5.05
2023-02-06T16:00:09.531Z,5.12
2023-02-06T16:02:42.117Z,5.11
2023-02-06T16:05:19.960Z,5.13
2023-02-06T16:07:49.608Z,5.19
2023-02-06T16:10:23.106Z,5.16
2023-02-06T16:12:52.401Z,5.14
2023-02-06T16:15:30.344Z,5.19
2023-02-06T16:18:01.384Z,5.18
2023-02-06T16:20:39.771Z,5.09
2023-02-06T16:23:26.896Z,5.23
2023-02-06T16:26:07.420Z,5.18
2023-02-06T16:28:42.852Z,5.13
2023-02-06T16:31:15.659Z,4.96
2023-02-06T16:33:48.124Z,4.95
2023-02-06T16:36:17.916Z,5.06
2023-02-06T16:38:54.054Z,5.15
2023-02-06T16:41:29.263Z,5.20
2023-02-06T16:43:58.187Z,5.21
2023-02-06T16:46:27.404Z,5.21
2023-02-06T16:48:57.185Z,5.20
2023-02-06T16:51:28.544Z,5.19
2023-02-06T16:53:57.238Z,5.17
2023-02-06T16:56:25.621Z,5.15
2023-02-06T16:58:53.543Z,5.10
2023-02-06T17:01:26.561Z,5.17
2023-02-06T17:03:56.821Z,5.15
2023-02-06T17:06:26.981Z,5.18
2023-02-06T17:08:58.739Z,5.10
2023-02-06T17:11:28.112Z,5.02
2023-02-06T17:13:56.154Z,5.00
2023-02-06T17:16:25.888Z,4.98
2023-02-06T17:18:54.370Z,5.03
2023-02-06T17:21:25.218Z,5.03
2023-02-06T17:23:53.161Z,5.06
2023-02-06T17:26:23.314Z,4.98
2023-02-06T17:28:52.148Z,4.88
2023-02-06T17:31:20.394Z,4.96
2023-02-06T17:33:48.587Z,4.90
2023-02-06T17:36:18.205Z,4.86
2023-02-06T17:38:47.594Z,4.93
2023-02-06T17:41:15.477Z,4.95
2023-02-06T17:43:43.406Z,4.89
2023-02-06T17:46:12.068Z,4.93
2023-02-06T17:48:42.705Z,4.97
2023-02-06T17:51:10.862Z,4.98
2023-02-06T17:53:38.909Z,4.96
2023-02-06T17:56:12.646Z,4.88
2023-02-06T17:58:40.766Z,4.90
2023-02-06T18:01:12.282Z,4.95
2023-02-06T18:03:40.281Z,4.90
2023-02-06T18:06:08.805Z,4.88
2023-02-06T18:08:36.789Z,4.93
2023-02-06T18:11:11.555Z,4.89
2023-02-06T18:13:39.710Z,4.83
2023-02-06T18:16:08.598Z,4.88
2023-02-06T18:18:36.606Z,4.71
2023-02-06T18:21:04.697Z,4.74
2023-02-06T18:23:32.623Z,4.78
2023-02-06T18:26:03.521Z,4.82
2023-02-06T18:28:34.109Z,4.93
2023-02-06T18:31:02.921Z,4.94
2023-02-06T18:33:32.085Z,4.96
2023-02-06T18:36:00.016Z,4.97
2023-02-06T18:38:28.073Z,4.97
2023-02-06T18:40:55.997Z,5.01
2023-02-06T18:43:22.864Z,5.09
2023-02-06T18:45:52.179Z,5.02
2023-02-06T18:48:20.100Z,4.93
2023-02-06T18:50:48.055Z,4.89
2023-02-06T18:53:16.179Z,4.78
2023-02-06T18:55:44.090Z,4.78
2023-02-06T18:58:12.029Z,4.77
2023-02-06T19:00:42.445Z,4.74
2023-02-06T19:03:11.773Z,4.87
2023-02-06T19:05:39.868Z,4.88
2023-02-06T19:08:07.771Z,4.87
2023-02-06T19:10:36.005Z,4.88
2023-02-06T19:13:04.077Z,4.92
2023-02-06T19:15:34.480Z,4.96
2023-02-06T19:18:03.137Z,4.92
2023-02-06T19:20:32.787Z,4.84
2023-02-06T19:23:00.718Z,4.81
2023-02-06T19:25:28.653Z,4.70
2023-02-06T19:27:56.905Z,4.78
2023-02-06T19:30:25.038Z,4.74
2023-02-06T19:32:52.981Z,4.83
2023-02-06T19:35:20.921Z,4.80
2023-02-06T19:37:51.441Z,4.79
2023-02-06T19:40:19.401Z,4.53
2023-02-06T19:42:47.353Z,4.50
2023-02-06T19:45:15.287Z,4.54
2023-02-06T19:47:43.181Z,4.63
2023-02-06T19:50:13.939Z,4.58
2023-02-06T19:52:42.184Z,4.60
2023-02-06T19:55:11.897Z,4.59
2023-02-06T19:57:40.733Z,4.57
2023-02-06T20:00:10.040Z,4.36
2023-02-06T20:02:39.093Z,4.08
2023-02-06T20:05:07.760Z,4.14
2023-02-06T20:07:35.704Z,4.08
2023-02-06T20:10:05.252Z,4.17
2023-02-06T20:12:34.676Z,4.25
2023-02-06T20:15:02.670Z,4.29
2023-02-06T20:17:30.633Z,4.38
2023-02-06T20:19:59.700Z,4.46
2023-02-06T20:22:27.762Z,4.35
2023-02-06T20:24:55.688Z,4.35
2023-02-06T20:27:23.574Z,4.29
2023-02-06T20:29:53.003Z,4.27
2023-02-06T20:32:20.904Z,4.01
2023-02-06T20:34:48.840Z,4.09
2023-02-06T20:37:17.733Z,4.03
2023-02-06T20:39:45.681Z,3.98
2023-02-06T20:42:13.577Z,4.06
2023-02-06T20:44:41.458Z,4.10
2023-02-06T20:47:10.793Z,3.93
2023-02-06T20:49:38.706Z,4.06
2023-02-06T20:52:06.962Z,4.10
2023-02-06T20:54:34.874Z,4.02
2023-02-06T20:57:02.878Z,4.02
2023-02-06T20:59:31.474Z,4.13
2023-02-06T21:01:59.503Z,4.18
2023-02-06T21:04:29.227Z,4.22
2023-02-06T21:06:57.193Z,4.23
2023-02-06T21:09:25.585Z,4.23
2023-02-06T21:11:53.571Z,4.33
2023-02-06T21:14:21.690Z,4.24
2023-02-06T21:16:50.078Z,4.25
2023-02-06T21:19:19.993Z,4.23
2023-02-06T21:21:50.235Z,4.21
2023-02-06T21:24:18.480Z,4.15
2023-02-06T21:26:46.430Z,4.16
2023-02-06T21:29:15.856Z,4.14
2023-02-06T21:31:44.307Z,4.21
2023-02-06T21:34:15.089Z,4.24
2023-02-06T21:36:43.707Z,4.28
2023-02-06T21:39:17.494Z,4.29
2023-02-06T21:41:47.337Z,4.27
2023-02-06T21:44:15.259Z,4.33
2023-02-06T21:46:43.162Z,4.34
2023-02-06T21:49:11.802Z,4.28
2023-02-06T21:51:40.143Z,4.23
2023-02-06T21:54:08.126Z,4.20
2023-02-06T21:56:39.069Z,4.22
2023-02-06T21:59:07.902Z,4.06
2023-02-06T22:01:36.297Z,4.07
2023-02-06T22:04:05.119Z,4.15
2023-02-06T22:06:36.840Z,4.11
2023-02-06T22:09:07.778Z,3.99
2023-02-06T22:11:38.842Z,4.09
2023-02-06T22:14:09.393Z,4.14
2023-02-06T22:16:37.381Z,4.19
2023-02-06T22:19:06.486Z,4.10
2023-02-06T22:21:35.757Z,3.92
2023-02-06T22:24:06.275Z,3.60
2023-02-06T22:26:36.912Z,3.62
2023-02-06T22:29:07.470Z,3.75
2023-02-06T22:31:36.680Z,3.63
2023-02-06T22:34:04.989Z,3.56
2023-02-06T22:36:33.934Z,3.22
2023-02-06T22:39:04.490Z,3.23
2023-02-06T22:41:32.424Z,3.36
2023-02-06T22:44:00.501Z,3.28
2023-02-06T22:46:31.663Z,3.34
2023-02-06T22:48:59.802Z,3.12
2023-02-06T22:51:27.876Z,3.26
2023-02-06T22:53:56.525Z,3.26
2023-02-06T22:56:31.368Z,3.38
2023-02-06T22:59:01.631Z,3.30
2023-02-06T23:01:33.209Z,3.22
2023-02-06T23:04:02.734Z,3.24
2023-02-06T23:06:32.342Z,3.29
2023-02-06T23:09:02.385Z,3.32
2023-02-06T23:11:31.824Z,3.32
2023-02-06T23:14:01.976Z,3.33
2023-02-06T23:16:33.288Z,3.45
2023-02-06T23:19:04.509Z,3.43
2023-02-06T23:21:34.000Z,3.41
2023-02-06T23:24:01.907Z,3.30
2023-02-06T23:26:30.519Z,3.34
2023-02-06T23:28:59.276Z,3.34
2023-02-06T23:31:28.306Z,3.29
2023-02-06T23:33:57.639Z,3.31
2023-02-06T23:36:27.640Z,3.42
2023-02-06T23:38:56.290Z,3.29
2023-02-06T23:41:26.482Z,3.25
2023-02-06T23:43:56.153Z,3.22
2023-02-06T23:46:25.533Z,3.13
2023-02-06T23:48:53.530Z,3.23
2023-02-06T23:51:23.688Z,3.15
2023-02-06T23:53:52.651Z,3.21
2023-02-06T23:56:22.676Z,3.24
2023-02-06T23:58:51.389Z,2.92
